createdAt,value
2023-03-27T00:01:34.510Z,6.60
2023-03-27T00:04:02.633Z,6.60
2023-03-27T00:06:34.422Z,6.60
2023-03-27T00:09:03.684Z,6.60
2023-03-27T00:11:31.922Z,6.60
2023-03-27T00:13:59.977Z,6.60
2023-03-27T00:16:29.403Z,6.60
2023-03-27T00:18:57.689Z,6.60
2023-03-27T00:21:26.079Z,6.50
2023-03-27T00:23:54.551Z,6.50
2023-03-27T00:26:22.598Z,6.50
2023-03-27T00:28:51.587Z,6.40
2023-03-27T00:31:19.747Z,6.40
2023-03-27T00:33:49.127Z,6.40
2023-03-27T00:36:17.262Z,6.40
2023-03-27T00:38:45.756Z,6.40
2023-03-27T00:41:13.961Z,6.40
2023-03-27T00:43:44.066Z,6.40
2023-03-27T00:46:31.759Z,6.40
2023-03-27T00:49:05.777Z,6.40
2023-03-27T00:51:35.405Z,6.40
2023-03-27T00:54:05.360Z,6.40
2023-03-27T00:56:38.475Z,6.30
2023-03-27T00:59:10.763Z,6.30
2023-03-27T01:01:40.547Z,6.30
2023-03-27T01:04:10.845Z,6.30
2023-03-27T01:06:41.908Z,6.20
2023-03-27T01:09:10.325Z,6.20
2023-03-27T01:12:01.920Z,6.10
2023-03-27T01:14:35.762Z,6.10
2023-03-27T01:17:19.006Z,6.10
2023-03-27T01:20:09.955Z,6.00
2023-03-27T01:23:16.597Z,6.00
2023-03-27T01:26:36.148Z,5.90
2023-03-27T01:29:11.508Z,5.90
2023-03-27T01:31:55.321Z,5.80
2023-03-27T01:34:46.812Z,5.80
2023-03-27T01:37:47.876Z,5.90
2023-03-27T01:40:20.727Z,5.90
2023-03-27T01:42:52.160Z,5.90
2023-03-27T01:45:22.614Z,5.90
2023-03-27T01:47:57.496Z,5.90
2023-03-27T01:50:31.778Z,5.90
2023-03-27T01:53:04.007Z,5.80
2023-03-27T01:55:37.274Z,5.70
2023-03-27T01:58:09.085Z,5.70
2023-03-27T02:00:52.241Z,5.60
2023-03-27T02:03:26.959Z,5.60
2023-03-27T02:05:58.374Z,5.50
2023-03-27T02:08:32.214Z,5.40
2023-03-27T02:11:01.954Z,5.40
2023-03-27T02:13:38.847Z,5.40
2023-03-27T02:16:10.003Z,5.20
2023-03-27T02:18:40.670Z,5.10
2023-03-27T02:21:14.133Z,5.20
2023-03-27T02:23:45.311Z,5.00
2023-03-27T02:26:14.735Z,4.90
2023-03-27T02:28:57.478Z,4.80
2023-03-27T02:31:38.473Z,4.80
2023-03-27T02:34:27.431Z,4.70
2023-03-27T02:37:02.106Z,4.70
2023-03-27T02:39:42.506Z,4.70
2023-03-27T02:42:18.881Z,4.60
2023-03-27T02:44:52.654Z,4.60
2023-03-27T02:47:26.883Z,4.50
2023-03-27T02:49:59.243Z,4.60
2023-03-27T02:52:30.438Z,4.60
2023-03-27T02:55:06.369Z,4.50
2023-03-27T02:57:39.929Z,4.50
2023-03-27T03:00:16.393Z,4.40
2023-03-27T03:02:45.894Z,4.40
2023-03-27T03:05:17.930Z,4.40
2023-03-27T03:07:46.287Z,4.30
2023-03-27T03:10:15.753Z,4.20
2023-03-27T03:12:45.225Z,4.20
2023-03-27T03:15:13.637Z,4.20
2023-03-27T03:17:41.750Z,4.10
2023-03-27T03:20:12.261Z,4.00
2023-03-27T03:22:42.134Z,3.90
2023-03-27T03:25:11.604Z,3.90
2023-03-27T03:27:41.350Z,3.80
2023-03-27T03:30:12.140Z,3.80
2023-03-27T03:32:47.377Z,3.80
2023-03-27T03:35:15.665Z,3.80
2023-03-27T03:37:51.202Z,3.80
2023-03-27T03:40:20.876Z,3.90
2023-03-27T03:42:50.836Z,3.80
2023-03-27T03:45:21.176Z,3.90
2023-03-27T03:47:49.308Z,4.00
2023-03-27T03:50:17.521Z,4.00
2023-03-27T03:52:47.108Z,3.90
2023-03-27T03:55:15.861Z,3.80
2023-03-27T03:57:47.107Z,3.80
2023-03-27T04:00:16.997Z,3.90
2023-03-27T04:02:46.666Z,3.80
2023-03-27T04:05:14.935Z,3.70
2023-03-27T04:07:43.064Z,3.70
2023-03-27T04:10:13.443Z,3.60
2023-03-27T04:12:42.009Z,3.60
2023-03-27T04:15:10.696Z,3.50
2023-03-27T04:17:39.007Z,3.40
2023-03-27T04:20:09.308Z,3.40
2023-03-27T04:22:38.121Z,3.50
2023-03-27T04:25:07.890Z,3.50
2023-03-27T04:27:36.779Z,3.40
2023-03-27T04:30:08.592Z,3.30
2023-03-27T04:32:37.171Z,3.30
2023-03-27T04:35:05.715Z,3.30
2023-03-27T04:37:36.048Z,3.30
2023-03-27T04:40:05.574Z,3.30
2023-03-27T04:42:33.730Z,3.30
2023-03-27T04:45:02.604Z,3.30
2023-03-27T04:47:31.824Z,3.20
2023-03-27T04:50:00.993Z,3.20
2023-03-27T04:52:29.737Z,3.10
2023-03-27T04:55:00.288Z,3.00
2023-03-27T04:57:30.772Z,2.90
2023-03-27T04:59:59.163Z,2.90
2023-03-27T05:02:28.050Z,2.90
2023-03-27T05:04:58.563Z,2.80
2023-03-27T05:07:28.381Z,2.80
2023-03-27T05:09:57.614Z,2.70
2023-03-27T05:12:27.994Z,2.70
2023-03-27T05:14:55.979Z,2.70
2023-03-27T05:17:25.757Z,2.70
2023-03-27T05:19:53.847Z,2.70
2023-03-27T05:22:21.923Z,2.70
2023-03-27T05:24:49.953Z,2.60
2023-03-27T05:27:19.318Z,2.60
2023-03-27T05:29:49.131Z,2.50
2023-03-27T05:32:17.158Z,2.60
2023-03-27T05:34:45.911Z,2.60
2023-03-27T05:37:14.036Z,2.60
2023-03-27T05:39:42.092Z,2.60
2023-03-27T05:42:10.169Z,2.60
2023-03-27T05:44:38.198Z,2.50
2023-03-27T05:47:07.683Z,2.50
2023-03-27T05:49:35.893Z,2.50
2023-03-27T05:52:04.300Z,2.50
2023-03-27T05:54:32.421Z,2.50
2023-03-27T05:57:01.296Z,2.50
2023-03-27T05:59:29.448Z,2.60
2023-03-27T06:01:58.483Z,2.60
2023-03-27T06:04:28.558Z,2.60
2023-03-27T06:06:56.743Z,2.50
2023-03-27T06:09:25.318Z,2.50
2023-03-27T06:11:53.317Z,2.60
2023-03-27T06:14:21.322Z,2.60
2023-03-27T06:16:49.572Z,2.70
2023-03-27T06:19:17.853Z,2.70
2023-03-27T06:21:47.279Z,2.70
2023-03-27T06:24:15.344Z,2.80
2023-03-27T06:26:43.524Z,2.70
2023-03-27T06:29:11.655Z,2.70
2023-03-27T06:31:39.647Z,2.60
2023-03-27T06:34:08.575Z,2.70
2023-03-27T06:36:36.639Z,2.70
2023-03-27T06:39:06.274Z,2.80
2023-03-27T06:41:34.293Z,2.80
2023-03-27T06:44:02.360Z,3.00
2023-03-27T06:46:42.688Z,3.00
2023-03-27T06:49:12.995Z,3.10
2023-03-27T06:51:41.033Z,3.20
2023-03-27T06:54:11.040Z,3.20
2023-03-27T06:56:39.211Z,3.20
2023-03-27T06:59:07.311Z,3.00
2023-03-27T07:01:35.408Z,3.00
2023-03-27T07:04:03.503Z,3.00
2023-03-27T07:06:31.537Z,2.90
2023-03-27T07:08:59.602Z,3.00
2023-03-27T07:11:31.335Z,3.10
2023-03-27T07:14:00.168Z,3.20
2023-03-27T07:16:28.415Z,3.10
2023-03-27T07:18:58.834Z,3.30
2023-03-27T07:21:28.445Z,3.50
2023-03-27T07:23:56.410Z,3.30
2023-03-27T07:26:24.440Z,3.10
2023-03-27T07:28:54.765Z,3.20
2023-03-27T07:33:53.790Z,3.30
2023-03-27T07:36:22.426Z,3.50
2023-03-27T07:38:50.497Z,3.80
2023-03-27T07:41:18.975Z,4.50
2023-03-27T07:43:47.017Z,4.60
2023-03-27T07:46:16.386Z,4.90
2023-03-27T07:48:44.607Z,4.40
2023-03-27T07:51:14.087Z,4.20
2023-03-27T07:53:43.617Z,4.40
2023-03-27T07:56:11.963Z,4.50
2023-03-27T07:58:40.439Z,4.50
2023-03-27T08:01:08.648Z,4.60
2023-03-27T08:03:39.087Z,4.50
2023-03-27T08:06:08.112Z,4.10
2023-03-27T08:08:36.661Z,3.90
2023-03-27T08:11:06.183Z,4.00
2023-03-27T08:13:34.229Z,4.20
2023-03-27T08:16:07.742Z,4.00
2023-03-27T08:18:37.962Z,3.90
2023-03-27T08:21:08.309Z,4.00
2023-03-27T08:23:37.626Z,3.90
2023-03-27T08:26:06.356Z,4.40
2023-03-27T08:28:35.812Z,5.10
2023-03-27T08:31:10.270Z,5.50
2023-03-27T08:33:42.777Z,5.60
2023-03-27T08:36:12.213Z,7.00
2023-03-27T08:38:40.329Z,8.60
2023-03-27T08:41:09.174Z,8.80
2023-03-27T08:43:41.094Z,8.90
2023-03-27T08:46:16.457Z,10.00
2023-03-27T08:48:51.824Z,10.30
2023-03-27T08:51:26.746Z,10.90
2023-03-27T08:54:00.161Z,9.70
2023-03-27T08:56:28.852Z,8.40
2023-03-27T08:58:57.016Z,8.00
2023-03-27T09:01:31.371Z,8.50
2023-03-27T09:04:07.362Z,9.10
2023-03-27T09:06:43.565Z,9.30
2023-03-27T09:09:20.533Z,10.00
2023-03-27T09:12:01.051Z,10.20
2023-03-27T09:14:34.035Z,10.20
2023-03-27T09:17:08.460Z,9.60
2023-03-27T09:19:44.595Z,9.80
2023-03-27T09:22:15.662Z,10.90
2023-03-27T09:24:47.438Z,11.20
2023-03-27T09:27:20.266Z,10.90
2023-03-27T09:30:05.440Z,10.30
2023-03-27T09:32:34.992Z,9.60
2023-03-27T09:35:05.070Z,8.10
2023-03-27T09:37:34.529Z,7.80
2023-03-27T09:40:08.414Z,9.10
2023-03-27T09:42:40.740Z,10.00
2023-03-27T09:45:12.842Z,10.60
2023-03-27T09:47:46.647Z,10.40
2023-03-27T09:50:28.021Z,10.10
2023-03-27T09:53:09.319Z,8.90
2023-03-27T09:55:49.666Z,9.60
2023-03-27T09:58:25.904Z,9.50
2023-03-27T10:01:08.619Z,8.80
2023-03-27T10:03:41.139Z,7.30
2023-03-27T10:06:14.592Z,6.90
2023-03-27T10:08:46.220Z,6.70
2023-03-27T10:11:19.742Z,6.70
2023-03-27T10:13:49.394Z,6.80
2023-03-27T10:16:19.915Z,6.70
2023-03-27T10:18:52.349Z,7.00
2023-03-27T10:21:29.050Z,7.20
2023-03-27T10:24:05.893Z,7.00
2023-03-27T10:26:38.138Z,6.90
2023-03-27T10:29:22.041Z,6.60
2023-03-27T10:31:52.768Z,6.90
2023-03-27T10:34:33.745Z,7.10
2023-03-27T10:37:04.904Z,8.40
2023-03-27T10:39:36.393Z,10.00
2023-03-27T10:42:09.351Z,9.60
2023-03-27T10:44:39.267Z,9.20
2023-03-27T10:47:16.875Z,7.80
2023-03-27T10:49:50.240Z,7.40
2023-03-27T10:52:24.616Z,8.90
2023-03-27T10:55:09.034Z,10.40
2023-03-27T10:57:39.401Z,10.40
2023-03-27T11:00:18.383Z,10.00
2023-03-27T11:02:51.654Z,8.70
2023-03-27T11:05:24.713Z,7.60
2023-03-27T11:08:02.981Z,7.00
2023-03-27T11:10:35.325Z,7.60
2023-03-27T11:13:09.944Z,8.80
2023-03-27T11:15:42.229Z,9.80
2023-03-27T11:18:18.458Z,10.10
2023-03-27T11:20:51.884Z,11.20
2023-03-27T11:23:29.863Z,11.00
2023-03-27T11:26:00.176Z,9.40
2023-03-27T11:28:39.636Z,8.60
2023-03-27T11:31:16.342Z,9.00
2023-03-27T11:33:50.051Z,8.30
2023-03-27T11:36:30.779Z,7.70
2023-03-27T11:39:09.399Z,7.30
2023-03-27T11:41:37.365Z,6.80
2023-03-27T11:44:06.626Z,6.70
2023-03-27T11:46:47.072Z,6.70
2023-03-27T11:49:31.457Z,6.60
2023-03-27T11:52:13.362Z,7.20
2023-03-27T11:55:00.583Z,9.10
2023-03-27T11:57:28.856Z,10.70
2023-03-27T12:00:17.128Z,10.50
2023-03-27T12:03:02.176Z,10.30
2023-03-27T12:05:43.075Z,9.90
2023-03-27T12:08:21.711Z,10.30
2023-03-27T12:10:53.632Z,10.40
2023-03-27T12:13:47.799Z,10.60
2023-03-27T12:16:41.886Z,11.10
2023-03-27T12:19:38.269Z,11.00
2023-03-27T12:22:23.851Z,11.10
2023-03-27T12:25:06.128Z,11.30
2023-03-27T12:27:52.092Z,10.50
2023-03-27T12:30:28.369Z,10.30
2023-03-27T12:33:22.769Z,11.30
2023-03-27T12:35:53.775Z,11.50
2023-03-27T12:38:28.885Z,10.60
2023-03-27T12:41:13.774Z,9.70
2023-03-27T12:43:47.421Z,9.80
2023-03-27T12:46:20.005Z,8.90
2023-03-27T12:48:56.329Z,9.90
2023-03-27T12:51:43.658Z,10.70
2023-03-27T12:54:26.359Z,10.50
2023-03-27T12:57:05.237Z,10.20
2023-03-27T12:59:38.178Z,10.30
2023-03-27T13:02:58.598Z,11.10
2023-03-27T13:05:39.775Z,11.60
2023-03-27T13:08:38.246Z,11.70
2023-03-27T13:11:20.380Z,11.50
2023-03-27T13:14:21.440Z,10.30
2023-03-27T13:17:07.524Z,9.50
2023-03-27T13:19:46.891Z,8.40
2023-03-27T13:22:37.073Z,8.30
2023-03-27T13:25:26.185Z,8.10
2023-03-27T13:28:24.289Z,7.90
2023-03-27T13:30:55.667Z,7.60
2023-03-27T13:33:28.098Z,7.60
2023-03-27T13:36:08.516Z,7.40
2023-03-27T13:39:13.663Z,7.20
2023-03-27T13:42:06.340Z,7.00
2023-03-27T13:44:50.042Z,6.70
2023-03-27T13:47:52.896Z,6.50
2023-03-27T13:50:41.701Z,6.20
2023-03-27T13:53:23.674Z,6.00
2023-03-27T13:56:02.329Z,5.50
2023-03-27T13:58:47.890Z,5.00
2023-03-27T14:01:34.016Z,4.70
2023-03-27T14:04:33.786Z,4.90
2023-03-27T14:07:27.668Z,5.70
2023-03-27T14:10:08.466Z,6.30
2023-03-27T14:12:55.418Z,6.40
2023-03-27T14:15:50.746Z,6.60
2023-03-27T14:18:44.269Z,6.50
2023-03-27T14:21:27.651Z,6.80
2023-03-27T14:24:10.762Z,6.50
2023-03-27T14:26:45.373Z,5.90
2023-03-27T14:29:15.469Z,5.80
2023-03-27T14:31:44.637Z,6.00
2023-03-27T14:34:22.330Z,6.00
2023-03-27T14:36:52.192Z,6.10
2023-03-27T14:39:23.855Z,6.30
2023-03-27T14:41:55.891Z,5.80
2023-03-27T14:44:25.908Z,5.80
2023-03-27T14:47:00.566Z,6.20
2023-03-27T14:49:35.982Z,6.50
2023-03-27T14:52:07.856Z,6.70
2023-03-27T14:54:54.275Z,6.80
2023-03-27T14:57:25.751Z,7.40
2023-03-27T14:59:55.554Z,7.70
2023-03-27T15:02:29.130Z,7.30
2023-03-27T15:05:01.022Z,7.90
2023-03-27T15:07:35.515Z,8.50
2023-03-27T15:10:20.756Z,8.90
2023-03-27T15:12:49.586Z,8.90
2023-03-27T15:15:27.268Z,8.80
2023-03-27T15:17:59.667Z,8.50
2023-03-27T15:20:31.838Z,7.90
2023-03-27T15:23:06.583Z,7.70
2023-03-27T15:25:44.627Z,7.50
2023-03-27T15:28:22.054Z,7.30
2023-03-27T15:30:54.856Z,6.90
2023-03-27T15:33:34.610Z,6.80
2023-03-27T15:36:06.459Z,6.20
2023-03-27T15:38:37.215Z,5.90
2023-03-27T15:41:40.116Z,5.60
2023-03-27T15:44:13.088Z,5.20
2023-03-27T15:46:55.319Z,4.80
2023-03-27T15:49:27.778Z,4.60
2023-03-27T15:51:56.801Z,4.50
2023-03-27T15:54:31.743Z,4.60
2023-03-27T15:57:09.931Z,4.70
2023-03-27T15:59:52.047Z,4.90
2023-03-27T16:02:25.049Z,5.00
2023-03-27T16:04:55.542Z,4.90
2023-03-27T16:07:27.193Z,5.00
2023-03-27T16:09:57.320Z,5.00
2023-03-27T16:12:32.306Z,4.80
2023-03-27T16:15:04.294Z,4.80
2023-03-27T16:17:40.421Z,4.80
2023-03-27T16:20:34.584Z,4.80
2023-03-27T16:23:04.329Z,4.60
2023-03-27T16:25:32.434Z,4.70
2023-03-27T16:28:02.149Z,4.80
2023-03-27T16:30:32.427Z,5.10
2023-03-27T16:33:01.814Z,5.00
2023-03-27T16:35:32.533Z,4.60
2023-03-27T16:38:01.378Z,4.40
2023-03-27T16:40:29.466Z,4.20
2023-03-27T16:42:58.052Z,4.10
2023-03-27T16:45:27.794Z,4.00
2023-03-27T16:47:55.946Z,4.00
2023-03-27T16:50:26.834Z,4.10
2023-03-27T16:52:54.942Z,4.50
2023-03-27T16:55:24.083Z,4.50
2023-03-27T16:57:52.459Z,4.50
2023-03-27T17:00:21.396Z,4.50
2023-03-27T17:02:50.810Z,4.30
2023-03-27T17:05:19.600Z,4.30
2023-03-27T17:07:48.325Z,4.30
2023-03-27T17:10:16.843Z,4.20
2023-03-27T17:12:44.975Z,4.20
2023-03-27T17:15:15.024Z,4.10
2023-03-27T17:17:45.060Z,4.00
2023-03-27T17:20:15.502Z,3.90
2023-03-27T17:22:44.663Z,3.90
2023-03-27T17:25:13.151Z,3.70
2023-03-27T17:27:41.712Z,3.70
2023-03-27T17:30:11.122Z,3.60
2023-03-27T17:32:39.702Z,3.70
2023-03-27T17:35:08.867Z,3.70
2023-03-27T17:37:38.229Z,3.50
2023-03-27T17:40:09.675Z,3.30
2023-03-27T17:42:38.265Z,3.20
2023-03-27T17:45:07.552Z,3.20
2023-03-27T17:47:35.918Z,3.20
2023-03-27T17:50:04.403Z,3.10
2023-03-27T17:52:33.387Z,3.00
2023-03-27T17:55:02.919Z,3.00
2023-03-27T17:57:32.929Z,2.90
2023-03-27T18:00:00.938Z,2.80
2023-03-27T18:02:29.008Z,2.80
2023-03-27T18:04:57.610Z,2.80
2023-03-27T18:07:26.305Z,2.70
2023-03-27T18:09:54.934Z,2.70
2023-03-27T18:12:24.392Z,2.70
2023-03-27T18:14:52.464Z,2.70
2023-03-27T18:17:21.828Z,2.80
2023-03-27T18:19:49.909Z,3.00
2023-03-27T18:22:18.489Z,3.20
2023-03-27T18:24:46.998Z,3.10
2023-03-27T18:27:16.416Z,3.10
2023-03-27T18:29:45.753Z,2.80
2023-03-27T18:32:13.707Z,2.70
2023-03-27T18:34:42.048Z,2.70
2023-03-27T18:37:10.042Z,2.60
2023-03-27T18:39:38.401Z,2.50
2023-03-27T18:42:06.826Z,2.40
2023-03-27T18:44:36.404Z,2.30
2023-03-27T18:47:05.886Z,2.50
2023-03-27T18:49:33.939Z,2.40
2023-03-27T18:52:02.289Z,2.60
2023-03-27T18:54:31.098Z,2.80
2023-03-27T18:56:59.218Z,3.10
2023-03-27T18:59:27.727Z,3.40
2023-03-27T19:01:55.843Z,3.40
2023-03-27T19:04:25.777Z,3.50
2023-03-27T19:06:53.816Z,3.70
2023-03-27T19:09:28.213Z,3.50
2023-03-27T19:12:07.844Z,3.50
2023-03-27T19:14:36.943Z,3.50
2023-03-27T19:17:06.322Z,3.40
2023-03-27T19:19:36.300Z,3.70
2023-03-27T19:22:08.357Z,3.90
2023-03-27T19:24:37.600Z,3.90
2023-03-27T19:27:05.926Z,3.90
2023-03-27T19:29:34.396Z,3.70
2023-03-27T19:32:02.976Z,3.50
2023-03-27T19:34:40.371Z,3.40
2023-03-27T19:37:12.564Z,3.30
2023-03-27T19:39:41.256Z,3.30
2023-03-27T19:42:09.977Z,3.30
2023-03-27T19:44:38.956Z,3.20
2023-03-27T19:47:07.732Z,3.30
2023-03-27T19:49:37.100Z,3.20
2023-03-27T19:52:07.202Z,3.20
2023-03-27T19:54:36.701Z,3.20
2023-03-27T19:57:04.931Z,3.10
2023-03-27T19:59:33.028Z,3.10
2023-03-27T20:02:01.277Z,3.10
2023-03-27T20:04:29.419Z,3.20
2023-03-27T20:06:58.969Z,3.20
2023-03-27T20:09:27.167Z,3.20
2023-03-27T20:11:56.971Z,3.10
2023-03-27T20:14:25.493Z,3.00
2023-03-27T20:16:53.906Z,2.90
2023-03-27T20:19:22.764Z,2.80
2023-03-27T20:21:52.896Z,2.80
2023-03-27T20:24:20.931Z,2.80
2023-03-27T20:26:52.380Z,2.90
2023-03-27T20:29:24.571Z,2.90
2023-03-27T20:31:53.417Z,2.70
2023-03-27T20:34:22.491Z,2.80
2023-03-27T20:36:53.029Z,2.80
2023-03-27T20:39:21.476Z,2.80
2023-03-27T20:41:51.168Z,2.80
2023-03-27T20:44:19.600Z,2.90
2023-03-27T20:46:51.317Z,3.00
2023-03-27T20:49:39.827Z,3.00
2023-03-27T20:52:09.982Z,3.20
2023-03-27T20:54:38.655Z,3.20
2023-03-27T20:57:07.452Z,3.20
2023-03-27T20:59:35.517Z,3.10
2023-03-27T21:02:05.810Z,3.10
2023-03-27T21:04:34.120Z,3.10
2023-03-27T21:07:02.148Z,3.10
2023-03-27T21:09:30.319Z,3.10
2023-03-27T21:11:58.366Z,2.90
2023-03-27T21:14:26.399Z,2.80
2023-03-27T21:16:54.466Z,2.70
2023-03-27T21:19:24.045Z,2.60
2023-03-27T21:21:52.170Z,2.40
2023-03-27T21:24:20.625Z,2.40
2023-03-27T21:26:48.621Z,2.30
2023-03-27T21:29:16.613Z,2.50
2023-03-27T21:31:44.715Z,2.50
2023-03-27T21:34:12.785Z,2.50
2023-03-27T21:36:42.186Z,2.30
2023-03-27T21:39:10.565Z,2.30
2023-03-27T21:41:38.570Z,2.30
2023-03-27T21:44:06.928Z,2.20
2023-03-27T21:46:34.979Z,2.20
2023-03-27T21:49:03.115Z,2.20
2023-03-27T21:51:31.274Z,2.30
2023-03-27T21:54:00.776Z,2.20
2023-03-27T21:56:28.796Z,2.00
2023-03-27T21:58:57.581Z,2.10
2023-03-27T22:01:26.024Z,2.00
2023-03-27T22:03:54.287Z,2.10
2023-03-27T22:06:22.311Z,2.10
2023-03-27T22:08:50.497Z,2.00
2023-03-27T22:11:19.805Z,1.80
2023-03-27T22:13:49.047Z,1.70
2023-03-27T22:16:18.696Z,1.60
2023-03-27T22:18:46.732Z,1.60
2023-03-27T22:21:17.015Z,1.50
2023-03-27T22:23:45.864Z,1.50
2023-03-27T22:26:13.912Z,1.50
2023-03-27T22:28:43.359Z,1.30
2023-03-27T22:31:11.735Z,1.40
2023-03-27T22:33:40.193Z,1.40
2023-03-27T22:36:11.719Z,1.40
2023-03-27T22:38:40.679Z,1.50
2023-03-27T22:41:11.213Z,1.80
2023-03-27T22:43:39.565Z,1.90
2023-03-27T22:46:11.099Z,2.00
2023-03-27T22:48:39.239Z,1.90
2023-03-27T22:51:08.333Z,1.90
2023-03-27T22:53:36.808Z,1.80
2023-03-27T22:56:06.335Z,1.90
2023-03-27T22:58:34.656Z,2.20
2023-03-27T23:01:02.682Z,2.30
2023-03-27T23:03:32.174Z,2.20
2023-03-27T23:06:00.779Z,2.50
2023-03-27T23:08:29.546Z,2.40
2023-03-27T23:10:59.289Z,2.30
2023-03-27T23:13:29.513Z,2.10
2023-03-27T23:15:58.323Z,1.80
2023-03-27T23:18:27.152Z,1.90
2023-03-27T23:20:57.840Z,1.80
2023-03-27T23:23:26.789Z,1.80
2023-03-27T23:25:55.595Z,1.80
2023-03-27T23:28:23.632Z,2.10
2023-03-27T23:30:55.555Z,2.20
2023-03-27T23:33:25.348Z,2.40
2023-03-27T23:35:54.283Z,2.20
2023-03-27T23:38:23.716Z,2.00
2023-03-27T23:40:56.917Z,1.70
2023-03-27T23:43:26.116Z,1.80
2023-03-27T23:45:55.548Z,1.60
2023-03-27T23:48:24.083Z,1.50
2023-03-27T23:50:53.069Z,1.60
2023-03-27T23:53:23.065Z,1.80
2023-03-27T23:55:51.164Z,1.80
2023-03-27T23:58:19.584Z,1.70
